Time;durP1;ratioP1;P1;durP2;ratioP2;P2;SDS_P1;SDS_P2;PMS_P1;PMS_P2;Temp;Humidity;BMP_temperature;BMP_pressure;BME280_temperature;BME280_humidity;BME280_pressure;Samples;Min_cycle;Max_cycle;Signal;HPM_P1;HPM_P2
2022/06/22 00:00:28;;;;;;;1.60;1.50;;;24.40;51.80;;;;;;5081649;28;20533;-48
2022/06/22 00:03:12;;;;;;;1.50;1.40;;;24.40;51.80;;;;;;5067644;27;20540;-46
2022/06/22 00:05:53;;;;;;;1.93;1.57;;;24.40;51.80;;;;;;5114142;27;20611;-47
2022/06/22 00:08:37;;;;;;;1.40;1.30;;;24.40;51.60;;;;;;5109542;27;21112;-48
2022/06/22 00:11:20;;;;;;;2.97;1.00;;;24.40;51.50;;;;;;5080876;28;20536;-48
2022/06/22 00:14:03;;;;;;;1.60;1.50;;;24.50;51.60;;;;;;5083019;27;20544;-48
2022/06/22 00:16:50;;;;;;;1.50;1.40;;;24.40;51.50;;;;;;5094718;27;20566;-48
2022/06/22 00:19:41;;;;;;;1.20;1.10;;;24.50;51.60;;;;;;5107454;27;20589;-48
2022/06/22 00:22:24;;;;;;;1.43;1.33;;;24.50;51.70;;;;;;5049382;27;20548;-47
2022/06/22 00:25:20;;;;;;;1.53;1.43;;;24.40;51.70;;;;;;5074475;27;20587;-47
2022/06/22 00:28:31;;;;;;;1.30;1.20;;;24.40;51.70;;;;;;5050453;27;20612;-48
2022/06/22 00:31:17;;;;;;;2.73;1.27;;;24.40;51.70;;;;;;5082855;28;20589;-48
2022/06/22 00:34:13;;;;;;;1.70;1.43;;;24.40;51.60;;;;;;5086855;27;20590;-47
2022/06/22 00:37:00;;;;;;;1.97;1.73;;;24.40;51.60;;;;;;5078469;27;20604;-47
2022/06/22 00:39:44;;;;;;;1.83;1.30;;;24.40;51.60;;;;;;5080650;28;21094;-46
2022/06/22 00:42:31;;;;;;;1.57;1.40;;;24.40;51.60;;;;;;5091263;27;20548;-49
2022/06/22 00:45:23;;;;;;;1.40;1.30;;;24.40;51.60;;;;;;5081605;28;20961;-47
2022/06/22 00:48:15;;;;;;;2.07;1.80;;;24.40;51.70;;;;;;5068988;27;20967;-48
2022/06/22 00:50:59;;;;;;;1.50;1.40;;;24.40;51.60;;;;;;5082854;28;21124;-47
2022/06/22 00:53:43;;;;;;;1.90;1.70;;;24.40;51.60;;;;;;5075582;27;20669;-48
2022/06/22 00:56:39;;;;;;;1.17;1.07;;;24.40;51.60;;;;;;5080376;28;21071;-48
2022/06/22 00:59:27;;;;;;;1.40;1.30;;;24.40;51.60;;;;;;5086819;28;20536;-48
2022/06/22 01:02:18;;;;;;;1.27;1.20;;;24.40;51.60;;;;;;5063449;27;20547;-46
2022/06/22 01:05:07;;;;;;;1.43;1.33;;;24.40;51.60;;;;;;5087377;27;20597;-48
2022/06/22 01:07:55;;;;;;;1.40;1.10;;;24.40;51.70;;;;;;5071027;27;20607;-47
2022/06/22 01:10:42;;;;;;;1.87;1.50;;;24.40;51.70;;;;;;5086825;28;20532;-49
2022/06/22 01:13:29;;;;;;;1.50;1.40;;;24.30;51.70;;;;;;5126942;27;20977;-49
2022/06/22 01:16:17;;;;;;;2.23;1.50;;;24.40;51.70;;;;;;5061263;28;20532;-47
2022/06/22 01:19:03;;;;;;;1.43;1.13;;;24.30;51.60;;;;;;5128559;27;21103;-47
2022/06/22 01:21:47;;;;;;;1.67;1.57;;;24.40;51.70;;;;;;5050004;28;20596;-46
2022/06/22 01:24:36;;;;;;;2.63;1.70;;;24.30;51.60;;;;;;5088466;27;20609;-46
2022/06/22 01:27:31;;;;;;;1.90;1.67;;;24.40;51.70;;;;;;5052491;27;20622;-48
2022/06/22 01:30:23;;;;;;;2.00;1.80;;;24.30;51.60;;;;;;5085768;27;20585;-47
2022/06/22 01:33:09;;;;;;;1.57;1.47;;;24.30;51.70;;;;;;5069358;27;21133;-48
2022/06/22 01:35:53;;;;;;;1.50;1.17;;;24.40;51.70;;;;;;5078248;27;20548;-47
2022/06/22 01:38:38;;;;;;;1.30;1.20;;;24.30;51.60;;;;;;5109330;27;20583;-47
2022/06/22 01:41:31;;;;;;;1.80;1.27;;;24.30;51.60;;;;;;5083887;27;21094;-47
2022/06/22 01:44:16;;;;;;;1.90;1.60;;;24.30;51.60;;;;;;5078912;28;20544;-48
2022/06/22 01:47:17;;;;;;;1.73;1.30;;;24.30;51.60;;;;;;5059630;27;20601;-48
2022/06/22 01:50:05;;;;;;;1.70;1.60;;;24.30;51.60;;;;;;5108190;27;20579;-48
2022/06/22 01:52:54;;;;;;;1.27;1.17;;;24.30;51.60;;;;;;5112359;27;20940;-47
2022/06/22 01:55:44;;;;;;;1.27;1.17;;;24.30;51.60;;;;;;5060414;28;20596;-47
2022/06/22 01:58:37;;;;;;;1.47;1.37;;;24.30;51.60;;;;;;5084223;28;20635;-47
2022/06/22 02:01:26;;;;;;;1.90;1.70;;;24.30;51.60;;;;;;5081799;28;20540;-47
2022/06/22 02:04:21;;;;;;;1.40;1.30;;;24.30;51.60;;;;;;5082584;28;20536;-47
2022/06/22 02:10:27;;;;;;;2.70;2.23;;;24.30;51.80;;;;;;5087735;28;20585;-48
2022/06/22 02:13:19;;;;;;;2.50;1.67;;;24.30;51.70;;;;;;5064175;27;20547;-47
2022/06/22 02:16:06;;;;;;;3.67;1.70;;;24.30;51.80;;;;;;5125033;27;20592;-47
2022/06/22 02:18:50;;;;;;;1.67;1.57;;;24.30;51.70;;;;;;5087789;28;20585;-48
2022/06/22 02:21:37;;;;;;;1.60;1.40;;;24.30;51.80;;;;;;5050406;27;20639;-49
2022/06/22 02:24:26;;;;;;;2.77;1.53;;;24.30;51.90;;;;;;5080942;27;21133;-47
2022/06/22 02:27:08;;;;;;;4.20;1.97;;;24.30;51.90;;;;;;5057402;28;20586;-47
2022/06/22 02:29:52;;;;;;;1.37;1.27;;;24.20;51.80;;;;;;5080278;28;20528;-47
2022/06/22 02:32:36;;;;;;;1.50;1.40;;;24.30;51.90;;;;;;5100507;27;20673;-47
2022/06/22 02:35:17;;;;;;;1.60;1.20;;;24.20;51.80;;;;;;5085338;27;20631;-49
2022/06/22 02:38:04;;;;;;;1.60;1.50;;;24.20;51.80;;;;;;5069502;27;20605;-48
2022/06/22 02:46:48;;;;;;;1.87;1.67;;;24.20;51.80;;;;;;5134210;27;20608;-49
2022/06/22 02:49:33;;;;;;;2.03;1.87;;;24.20;51.80;;;;;;5071068;27;20668;-48
2022/06/22 02:52:16;;;;;;;2.10;1.50;;;24.20;51.80;;;;;;5050901;28;20607;-48
2022/06/22 02:54:59;;;;;;;1.67;1.57;;;24.20;51.80;;;;;;5087559;28;21095;-47
2022/06/22 02:57:45;;;;;;;2.20;1.80;;;24.20;51.80;;;;;;5043186;27;20625;-47
2022/06/22 03:00:30;;;;;;;1.33;1.23;;;24.10;51.70;;;;;;5081384;28;20589;-48
2022/06/22 03:03:14;;;;;;;2.57;1.60;;;24.20;51.70;;;;;;5055649;27;20599;-47
2022/06/22 03:05:56;;;;;;;1.70;1.60;;;24.10;51.70;;;;;;5082844;28;20602;-48
2022/06/22 03:08:38;;;;;;;1.53;1.43;;;24.10;51.60;;;;;;5110902;27;20570;-48
2022/06/22 03:11:19;;;;;;;2.10;1.80;;;24.20;51.70;;;;;;5082329;28;20590;-47
2022/06/22 03:14:09;;;;;;;1.90;1.67;;;24.20;51.70;;;;;;5121058;27;20607;-48
2022/06/22 03:16:54;;;;;;;2.00;1.57;;;24.10;51.60;;;;;;5120569;27;20944;-48
2022/06/22 03:19:42;;;;;;;1.97;1.60;;;24.10;52.80;;;;;;5069387;28;20524;-47
2022/06/22 03:22:29;;;;;;;1.63;1.53;;;24.10;51.70;;;;;;5112691;27;21126;-46
2022/06/22 03:25:28;;;;;;;3.40;1.47;;;24.10;51.70;;;;;;5126714;27;1270417;-46
2022/06/22 03:28:14;;;;;;;1.77;1.50;;;24.10;51.60;;;;;;5068806;27;20588;-47
2022/06/22 03:30:59;;;;;;;2.10;1.20;;;24.10;51.60;;;;;;5063716;28;20606;-46
2022/06/22 03:33:45;;;;;;;1.80;1.70;;;24.10;51.80;;;;;;5108835;27;20570;-47
2022/06/22 03:36:33;;;;;;;2.30;1.77;;;24.10;51.80;;;;;;5109395;27;20527;-48
2022/06/22 03:39:17;;;;;;;1.70;1.60;;;24.10;51.70;;;;;;5130980;27;20574;-48
2022/06/22 03:42:01;;;;;;;1.77;1.63;;;24.10;51.80;;;;;;5061337;27;20555;-47
2022/06/22 03:44:46;;;;;;;1.80;1.60;;;24.10;51.80;;;;;;5085128;28;20531;-48
2022/06/22 03:47:30;;;;;;;1.80;1.27;;;24.10;51.80;;;;;;5046915;22;20575;-49
2022/06/22 03:50:19;;;;;;;2.00;1.67;;;24.10;51.80;;;;;;5086099;28;20582;-48
2022/06/22 03:53:07;;;;;;;1.67;1.30;;;24.00;51.60;;;;;;5077510;27;21122;-48
2022/06/22 03:55:52;;;;;;;2.97;1.83;;;24.00;51.60;;;;;;5060769;28;20541;-48
2022/06/22 03:58:32;;;;;;;2.60;1.37;;;24.00;51.60;;;;;;5109915;27;20538;-51
2022/06/22 04:01:15;;;;;;;1.70;1.60;;;24.00;51.70;;;;;;5079627;28;20515;-49
2022/06/22 04:03:57;;;;;;;1.93;1.60;;;24.10;51.80;;;;;;5083907;28;20959;-48
2022/06/22 04:06:43;;;;;;;1.40;1.30;;;24.00;51.70;;;;;;5091293;27;20417;-51
2022/06/22 04:09:27;;;;;;;2.17;1.97;;;24.10;51.90;;;;;;5128622;27;20581;-50
2022/06/22 04:12:12;;;;;;;1.80;1.63;;;24.00;51.70;;;;;;5057426;28;20556;-48
2022/06/22 04:15:13;;;;;;;1.77;1.60;;;24.00;51.80;;;;;;5072866;28;20557;-47
2022/06/22 04:17:58;;;;;;;1.70;1.60;;;24.00;51.80;;;;;;5110943;27;21238;-72
2022/06/22 04:20:51;;;;;;;2.27;2.07;;;24.00;51.80;;;;;;5086267;27;20535;-51
2022/06/22 04:23:35;;;;;;;1.40;1.30;;;24.00;51.80;;;;;;5127924;27;20537;-48
2022/06/22 04:26:24;;;;;;;1.60;1.50;;;24.00;51.80;;;;;;5081971;27;20527;-72
2022/06/22 04:29:13;;;;;;;1.67;1.57;;;23.90;51.80;;;;;;5081900;28;20955;-50
2022/06/22 04:32:00;;;;;;;1.90;1.70;;;23.90;51.80;;;;;;5077875;28;20606;-48
2022/06/22 04:34:47;;;;;;;1.50;1.40;;;23.90;51.80;;;;;;5058446;28;20535;-48
2022/06/22 04:37:38;;;;;;;2.27;1.80;;;24.00;51.90;;;;;;5064729;28;20547;-49
2022/06/22 04:40:24;;;;;;;2.27;1.50;;;24.00;51.90;;;;;;5087805;28;20528;-47
2022/06/22 04:43:05;;;;;;;1.70;1.60;;;23.90;51.80;;;;;;5069808;27;20547;-49
2022/06/22 04:45:47;;;;;;;1.60;1.50;;;23.90;51.90;;;;;;5121141;27;20599;-48
2022/06/22 04:48:31;;;;;;;1.63;1.50;;;23.90;51.90;;;;;;5087538;28;20579;-49
2022/06/22 04:51:19;;;;;;;1.60;1.50;;;23.90;52.00;;;;;;5083917;28;20527;-47
2022/06/22 04:54:06;;;;;;;1.70;1.60;;;23.90;51.90;;;;;;5128176;27;21122;-49
2022/06/22 04:56:49;;;;;;;2.03;1.83;;;23.90;52.00;;;;;;5067309;28;20542;-48
2022/06/22 04:59:32;;;;;;;3.03;1.77;;;23.90;51.90;;;;;;5104796;27;20532;-48
2022/06/22 05:02:16;;;;;;;1.60;1.50;;;23.90;51.90;;;;;;5055014;28;20545;-49
2022/06/22 05:05:02;;;;;;;1.30;1.20;;;23.90;51.90;;;;;;5085606;28;20582;-48
2022/06/22 05:07:55;;;;;;;2.53;1.77;;;23.90;52.00;;;;;;5043177;27;20549;-47
2022/06/22 05:10:44;;;;;;;1.70;1.10;;;23.90;52.00;;;;;;5111205;27;20582;-49
2022/06/22 05:13:28;;;;;;;1.77;1.63;;;23.90;51.90;;;;;;5127897;27;20591;-49
2022/06/22 05:16:14;;;;;;;1.23;1.10;;;23.90;52.00;;;;;;5096593;27;20578;-50
2022/06/22 05:18:57;;;;;;;1.63;1.30;;;23.80;51.80;;;;;;5128700;27;20949;-48
2022/06/22 05:21:39;;;;;;;1.60;1.50;;;23.80;51.90;;;;;;5078127;28;20946;-48
2022/06/22 05:24:23;;;;;;;2.07;1.73;;;23.90;51.90;;;;;;5142126;27;20649;-52
2022/06/22 05:27:08;;;;;;;3.23;1.67;;;23.90;51.90;;;;;;5070977;28;20594;-49
2022/06/22 05:29:54;;;;;;;1.40;1.30;;;23.80;52.00;;;;;;5129877;27;20580;-51
2022/06/22 05:32:40;;;;;;;1.27;1.17;;;23.80;51.90;;;;;;5085762;27;20947;-51
2022/06/22 05:35:27;;;;;;;1.30;1.17;;;23.90;52.00;;;;;;5104798;27;20607;-51
2022/06/22 05:38:10;;;;;;;1.50;1.40;;;23.80;51.80;;;;;;5072639;27;20545;-48
2022/06/22 05:40:53;;;;;;;1.87;1.73;;;23.80;51.80;;;;;;5128399;27;20572;-48
2022/06/22 05:43:34;;;;;;;1.40;1.30;;;23.80;51.90;;;;;;5082771;27;20585;-51
2022/06/22 05:46:17;;;;;;;1.77;1.63;;;23.80;51.80;;;;;;5078809;28;20524;-48
2022/06/22 05:48:58;;;;;;;1.60;1.37;;;23.90;51.90;;;;;;5087341;28;20529;-48
2022/06/22 05:51:45;;;;;;;1.57;1.30;;;23.80;51.80;;;;;;5087867;27;20572;-51
2022/06/22 05:54:31;;;;;;;2.13;1.93;;;23.80;51.90;;;;;;5103309;27;1217099;-48
2022/06/22 05:57:20;;;;;;;2.13;1.93;;;23.80;51.80;;;;;;5108713;27;20949;-49
2022/06/22 06:00:06;;;;;;;1.60;1.50;;;23.80;51.80;;;;;;5062860;27;20607;-50
2022/06/22 06:03:00;;;;;;;1.70;1.57;;;23.80;51.80;;;;;;5058409;27;20551;-47
2022/06/22 06:05:46;;;;;;;2.53;1.27;;;23.80;51.80;;;;;;5066385;28;20548;-51
2022/06/22 06:08:36;;;;;;;1.43;1.30;;;23.80;51.80;;;;;;5086709;28;20590;-48
2022/06/22 06:11:22;;;;;;;2.03;1.40;;;23.80;51.80;;;;;;5083923;28;20524;-48
2022/06/22 06:14:06;;;;;;;2.07;1.50;;;23.80;52.00;;;;;;5102557;27;20536;-50
2022/06/22 06:16:50;;;;;;;2.63;1.53;;;23.80;51.90;;;;;;5067496;28;20540;-49
2022/06/22 06:19:37;;;;;;;0.93;0.90;;;23.80;51.90;;;;;;5134862;27;20948;-48
2022/06/22 06:22:18;;;;;;;1.60;1.50;;;23.80;52.00;;;;;;5051692;27;20591;-47
2022/06/22 06:28:05;;;;;;;1.60;1.50;;;23.80;52.00;;;;;;5053792;27;20546;-48
2022/06/22 06:30:49;;;;;;;2.13;1.30;;;23.80;51.90;;;;;;5084852;28;20586;-49
2022/06/22 06:33:35;;;;;;;1.70;1.60;;;23.70;51.90;;;;;;5070471;28;20580;-47
2022/06/22 06:36:19;;;;;;;2.50;1.37;;;23.80;51.90;;;;;;5080153;27;20668;-48
2022/06/22 06:39:03;;;;;;;1.90;1.70;;;23.80;51.90;;;;;;5087396;27;20575;-48
2022/06/22 06:42:03;;;;;;;2.20;1.27;;;23.70;51.90;;;;;;5067364;28;20598;-47
2022/06/22 06:44:45;;;;;;;1.90;1.43;;;23.80;51.90;;;;;;5124487;27;20569;-49
2022/06/22 06:47:33;;;;;;;1.67;1.40;;;23.80;51.90;;;;;;4989730;28;20629;-48
2022/06/22 06:50:18;;;;;;;2.03;1.80;;;23.80;51.90;;;;;;5106305;27;20576;-48
2022/06/22 06:53:08;;;;;;;1.83;1.70;;;23.70;51.70;;;;;;5070602;27;20538;-47
2022/06/22 06:55:53;;;;;;;1.63;1.50;;;23.70;51.60;;;;;;5115557;27;20624;-50
2022/06/22 06:58:40;;;;;;;2.03;1.10;;;23.70;51.60;;;;;;5110875;27;21000;-48
2022/06/22 07:01:24;;;;;;;3.10;2.60;;;23.70;51.60;;;;;;5079337;27;21026;-48
2022/06/22 07:04:11;;;;;;;2.23;1.63;;;23.70;51.40;;;;;;5086888;27;20562;-48
2022/06/22 07:06:55;;;;;;;2.70;2.40;;;23.70;51.50;;;;;;5116926;27;20559;-49
2022/06/22 07:09:38;;;;;;;2.57;2.37;;;23.70;51.10;;;;;;5106809;27;20939;-49
2022/06/22 07:12:27;;;;;;;1.80;1.70;;;23.70;51.00;;;;;;5071214;27;20581;-50
2022/06/22 07:15:18;;;;;;;1.93;1.83;;;23.70;51.20;;;;;;5066013;28;20605;-47
2022/06/22 07:18:02;;;;;;;3.30;2.40;;;23.70;51.10;;;;;;5092926;27;20617;-47
2022/06/22 07:20:46;;;;;;;3.83;2.90;;;23.70;51.10;;;;;;5074889;28;20537;-48
2022/06/22 07:23:33;;;;;;;2.80;1.70;;;23.70;51.00;;;;;;5071079;27;20573;-52
2022/06/22 07:26:26;;;;;;;3.53;2.70;;;23.70;51.10;;;;;;5122382;27;20550;-47
2022/06/22 07:29:27;;;;;;;2.27;2.07;;;23.70;51.10;;;;;;5099558;27;20588;-48
2022/06/22 07:32:16;;;;;;;2.87;1.97;;;23.70;51.10;;;;;;5057974;28;20607;-49
2022/06/22 07:35:05;;;;;;;2.90;2.37;;;23.70;51.30;;;;;;5090316;27;20540;-51
2022/06/22 07:37:56;;;;;;;2.30;2.13;;;23.70;51.30;;;;;;5069658;27;20592;-50
2022/06/22 07:41:18;;;;;;;2.20;1.83;;;23.70;51.60;;;;;;5107027;27;20612;-49
2022/06/22 07:43:40;;;;;;;1.60;1.47;;;23.70;51.60;;;;;;5086173;27;22244;-48
2022/06/22 07:46:28;;;;;;;1.80;1.70;;;23.70;51.80;;;;;;5070921;28;20568;-49
2022/06/22 07:49:15;;;;;;;1.73;1.60;;;23.70;51.70;;;;;;5128118;27;20581;-50
2022/06/22 07:51:59;;;;;;;3.50;1.73;;;23.70;51.80;;;;;;5101689;27;20576;-50
2022/06/22 07:54:45;;;;;;;2.10;1.90;;;23.70;51.70;;;;;;5086483;27;22247;-51
2022/06/22 07:57:34;;;;;;;2.10;1.17;;;23.70;51.80;;;;;;5036608;28;21178;-48
2022/06/22 08:00:19;;;;;;;3.40;1.80;;;23.70;51.80;;;;;;5120738;27;20576;-50
2022/06/22 08:03:06;;;;;;;2.00;1.80;;;23.70;51.90;;;;;;5069189;27;20606;-49
2022/06/22 08:05:51;;;;;;;1.70;1.60;;;23.70;51.90;;;;;;5122416;27;20607;-49
2022/06/22 08:08:38;;;;;;;1.73;1.63;;;23.70;51.90;;;;;;5068206;27;20542;-49
2022/06/22 08:11:26;;;;;;;2.23;2.03;;;23.70;51.90;;;;;;5121338;27;20963;-50
2022/06/22 08:14:13;;;;;;;1.40;1.30;;;23.70;51.90;;;;;;5086306;27;20588;-51
2022/06/22 08:16:58;;;;;;;2.00;1.50;;;23.70;51.90;;;;;;5072517;28;20555;-48
2022/06/22 08:19:39;;;;;;;1.97;1.70;;;23.70;52.00;;;;;;5087211;27;20525;-47
2022/06/22 08:22:21;;;;;;;2.23;1.50;;;23.60;51.90;;;;;;5047443;27;20659;-50
2022/06/22 08:25:04;;;;;;;1.50;1.40;;;23.60;51.90;;;;;;5115821;27;20527;-47
2022/06/22 08:27:46;;;;;;;1.43;1.27;;;23.60;52.00;;;;;;5083559;27;20994;-48
2022/06/22 08:30:27;;;;;;;1.70;1.60;;;23.70;52.00;;;;;;5129567;27;21022;-50
2022/06/22 08:33:10;;;;;;;2.07;1.87;;;23.60;52.00;;;;;;5067876;27;20544;-47
2022/06/22 08:35:55;;;;;;;1.57;1.40;;;23.70;52.00;;;;;;5071512;27;20938;-49
2022/06/22 08:38:40;;;;;;;2.17;1.57;;;23.60;51.90;;;;;;5086824;28;21163;-49
2022/06/22 08:41:38;;;;;;;2.13;1.70;;;23.60;52.00;;;;;;5096349;27;20528;-47
2022/06/22 08:44:30;;;;;;;1.70;1.60;;;23.60;52.00;;;;;;5120767;27;20542;-49
2022/06/22 08:47:33;;;;;;;3.97;1.40;;;23.60;52.10;;;;;;5105957;27;1390098;-48
2022/06/22 08:50:36;;;;;;;1.43;1.30;;;23.60;52.10;;;;;;5084910;28;20929;-49
2022/06/22 08:53:29;;;;;;;2.03;1.50;;;23.60;52.10;;;;;;5061638;27;20594;-48
2022/06/22 08:56:23;;;;;;;1.73;1.53;;;23.60;52.10;;;;;;5087620;27;20537;-48
2022/06/22 08:59:41;;;;;;;1.90;1.53;;;23.60;52.20;;;;;;5086926;28;20528;-48
2022/06/22 09:02:48;;;;;;;1.97;1.70;;;23.60;52.20;;;;;;5052781;28;20954;-50
2022/06/22 09:06:06;;;;;;;1.70;1.60;;;23.60;52.30;;;;;;5122381;27;20620;-50
2022/06/22 09:09:19;;;;;;;2.20;2.10;;;23.60;52.10;;;;;;5107838;27;20545;-47
2022/06/22 09:12:12;;;;;;;1.50;1.23;;;23.60;52.10;;;;;;5070272;27;20538;-49
2022/06/22 09:15:11;;;;;;;2.30;1.30;;;23.60;52.20;;;;;;5072461;28;20619;-48
2022/06/22 09:18:29;;;;;;;1.60;1.50;;;23.60;52.20;;;;;;5080596;27;21089;-47
2022/06/22 09:21:20;;;;;;;1.60;1.33;;;23.60;52.30;;;;;;5067433;28;20575;-49
2022/06/22 09:24:13;;;;;;;2.40;1.80;;;23.60;52.30;;;;;;5128040;27;20548;-47
2022/06/22 09:27:06;;;;;;;2.47;1.50;;;23.60;52.30;;;;;;5035438;27;20541;-52
2022/06/22 09:30:07;;;;;;;2.30;1.50;;;23.60;52.40;;;;;;5128919;27;20529;-49
2022/06/22 09:33:29;;;;;;;1.47;1.37;;;23.60;52.40;;;;;;5063944;28;20550;-51
2022/06/22 09:36:43;;;;;;;1.90;1.47;;;23.60;52.20;;;;;;5125326;27;20668;-50
2022/06/22 09:39:53;;;;;;;1.73;1.63;;;23.60;52.30;;;;;;5085954;28;20527;-49
2022/06/22 09:43:00;;;;;;;2.77;2.07;;;23.60;52.40;;;;;;5061197;28;20959;-48
2022/06/22 09:46:03;;;;;;;1.77;1.30;;;23.60;52.30;;;;;;5063691;27;20603;-51
2022/06/22 09:49:09;;;;;;;2.63;1.80;;;23.60;52.40;;;;;;5126482;27;20553;-49
2022/06/22 09:52:20;;;;;;;3.40;1.47;;;23.60;52.40;;;;;;5117305;27;20563;-47
2022/06/22 09:58:44;;;;;;;2.63;1.60;;;23.60;52.70;;;;;;5064368;27;20616;-51
2022/06/22 10:01:33;;;;;;;1.57;1.47;;;23.60;52.60;;;;;;5117805;27;20554;-48
2022/06/22 10:04:49;;;;;;;1.50;1.40;;;23.60;52.50;;;;;;5081145;28;20549;-53
2022/06/22 10:07:48;;;;;;;1.67;1.50;;;23.60;52.60;;;;;;5068184;27;21056;-49
2022/06/22 10:10:42;;;;;;;1.60;1.50;;;23.60;52.60;;;;;;5081644;27;20556;-47
2022/06/22 10:13:58;;;;;;;2.17;1.73;;;23.60;52.50;;;;;;5079093;27;20547;-51
2022/06/22 10:16:50;;;;;;;2.50;1.63;;;23.60;52.60;;;;;;5080913;27;20639;-49
2022/06/22 10:19:48;;;;;;;1.57;1.47;;;23.60;52.60;;;;;;5025504;28;20527;-47
2022/06/22 10:23:00;;;;;;;1.80;1.27;;;23.60;52.50;;;;;;5095165;27;20619;-46
2022/06/22 10:25:58;;;;;;;1.63;1.40;;;23.60;52.60;;;;;;5094487;22;20580;-49
2022/06/22 10:29:12;;;;;;;2.17;1.70;;;23.60;52.50;;;;;;5077543;27;20527;-48
2022/06/22 10:32:20;;;;;;;1.97;1.53;;;23.60;52.60;;;;;;5128158;27;20621;-48
2022/06/22 10:35:13;;;;;;;1.67;1.50;;;23.60;52.60;;;;;;5094951;27;20546;-48
2022/06/22 10:38:08;;;;;;;1.40;1.13;;;23.60;52.60;;;;;;5062355;27;20605;-48
2022/06/22 10:48:19;;;;;;;1.90;1.57;;;23.60;52.50;;;;;;5062188;28;20559;-48
2022/06/22 10:51:11;;;;;;;2.17;1.63;;;23.70;52.60;;;;;;5124919;27;20554;-48
2022/06/22 10:54:14;;;;;;;2.33;1.80;;;23.60;52.40;;;;;;5084131;27;20528;-48
2022/06/22 10:57:20;;;;;;;1.40;1.30;;;23.70;52.40;;;;;;5101644;27;20605;-49
2022/06/22 11:00:10;;;;;;;1.90;1.70;;;23.60;52.30;;;;;;5105692;27;20562;-48
2022/06/22 11:03:17;;;;;;;1.50;1.40;;;23.60;52.30;;;;;;5076332;27;20557;-48
2022/06/22 11:06:32;;;;;;;1.33;1.13;;;23.70;52.40;;;;;;5073297;27;20545;-48
2022/06/22 11:12:28;;;;;;;1.60;1.50;;;23.60;52.30;;;;;;5097035;27;20615;-48
2022/06/22 11:15:43;;;;;;;1.57;1.47;;;23.70;52.30;;;;;;5103972;27;21110;-48
2022/06/22 11:18:41;;;;;;;1.83;1.70;;;23.70;52.30;;;;;;5066690;27;20567;-49
2022/06/22 11:21:42;;;;;;;1.70;1.60;;;23.70;52.30;;;;;;5113061;27;20594;-48
2022/06/22 11:24:48;;;;;;;2.63;1.90;;;23.70;52.30;;;;;;5124021;27;20542;-48
2022/06/22 11:30:53;;;;;;;1.83;1.73;;;23.70;52.40;;;;;;5109930;27;20587;-48
2022/06/22 11:33:55;;;;;;;2.20;2.00;;;23.70;52.30;;;;;;5111691;27;20578;-48
2022/06/22 11:36:48;;;;;;;1.83;1.73;;;23.70;52.30;;;;;;5119517;27;20542;-49
2022/06/22 11:40:24;;;;;;;2.00;1.73;;;23.70;52.20;;;;;;5087943;28;21033;-49
2022/06/22 11:43:26;;;;;;;2.03;1.90;;;23.70;52.40;;;;;;5082203;27;20952;-48
2022/06/22 11:46:17;;;;;;;3.00;1.80;;;23.70;52.20;;;;;;5079842;28;20568;-50
2022/06/22 11:49:32;;;;;;;1.67;1.13;;;23.70;52.30;;;;;;5162358;27;20606;-48
2022/06/22 11:52:45;;;;;;;3.40;1.80;;;23.80;52.30;;;;;;5055052;28;20807;-48
2022/06/22 11:55:33;;;;;;;1.50;1.40;;;23.80;52.20;;;;;;5072226;27;20525;-47
2022/06/22 11:58:40;;;;;;;1.87;1.77;;;23.80;52.10;;;;;;5058160;27;20589;-48
2022/06/22 12:01:51;;;;;;;2.10;1.70;;;23.80;52.20;;;;;;5151892;27;20538;-48
2022/06/22 12:05:11;;;;;;;1.80;1.50;;;23.80;52.20;;;;;;5089458;27;20605;-48
2022/06/22 12:08:28;;;;;;;1.40;1.30;;;23.80;52.20;;;;;;5096831;27;20977;-48
2022/06/22 12:11:17;;;;;;;1.63;1.53;;;23.80;52.30;;;;;;5146304;27;20519;-49
2022/06/22 12:17:28;;;;;;;1.53;1.43;;;23.80;52.20;;;;;;5055592;28;21116;-49
2022/06/22 12:20:26;;;;;;;2.30;2.10;;;23.80;52.10;;;;;;5106091;27;21119;-48
2022/06/22 12:23:16;;;;;;;1.87;1.77;;;23.80;52.00;;;;;;5087672;27;20565;-48
2022/06/22 12:26:16;;;;;;;1.43;1.33;;;23.80;52.10;;;;;;5072654;27;20624;-48
2022/06/22 12:29:45;;;;;;;1.67;1.50;;;23.80;52.20;;;;;;5106198;27;20590;-47
2022/06/22 12:32:32;;;;;;;2.53;1.80;;;23.90;52.30;;;;;;5076358;27;20658;-47
2022/06/22 12:35:20;;;;;;;3.17;1.80;;;23.90;52.10;;;;;;5066330;27;20955;-49
2022/06/22 12:38:06;;;;;;;1.50;1.40;;;23.90;52.10;;;;;;5077944;27;20586;-49
2022/06/22 12:40:55;;;;;;;1.73;1.53;;;23.90;52.10;;;;;;5112391;27;20611;-49
2022/06/22 12:44:04;;;;;;;1.50;1.40;;;23.90;51.90;;;;;;5144615;27;1290604;-48
2022/06/22 12:46:57;;;;;;;1.70;1.60;;;23.90;52.10;;;;;;5116273;27;20943;-48
2022/06/22 12:49:49;;;;;;;2.10;1.90;;;23.90;52.10;;;;;;5128376;27;20513;-48
2022/06/22 12:52:35;;;;;;;1.30;1.20;;;23.90;52.00;;;;;;5060895;28;20794;-49
2022/06/22 12:55:20;;;;;;;1.70;1.60;;;23.90;52.00;;;;;;5105310;27;20589;-46
2022/06/22 12:58:17;;;;;;;2.30;2.10;;;23.90;52.10;;;;;;5069128;27;20563;-49
2022/06/22 13:00:59;;;;;;;1.97;1.60;;;23.90;51.90;;;;;;5125218;27;20556;-48
2022/06/22 13:03:44;;;;;;;1.80;1.70;;;23.90;51.80;;;;;;5083313;27;20568;-48
2022/06/22 13:06:28;;;;;;;1.67;1.57;;;24.00;51.80;;;;;;5073147;28;20598;-48
2022/06/22 13:09:10;;;;;;;2.67;1.70;;;24.00;51.90;;;;;;5076502;27;20589;-46
2022/06/22 13:11:51;;;;;;;3.37;2.33;;;24.00;52.00;;;;;;5072655;27;20543;-48
2022/06/22 13:14:37;;;;;;;2.63;1.60;;;24.00;51.80;;;;;;5081386;27;20547;-49
2022/06/22 13:17:27;;;;;;;1.40;1.30;;;24.00;51.80;;;;;;5056826;27;20540;-48
2022/06/22 13:20:30;;;;;;;1.20;1.10;;;24.00;51.70;;;;;;5127163;27;20524;-47
2022/06/22 13:23:23;;;;;;;2.70;2.00;;;24.10;51.90;;;;;;5068321;27;21084;-49
2022/06/22 13:26:18;;;;;;;1.60;1.50;;;24.00;51.70;;;;;;5140458;27;20581;-48
2022/06/22 13:29:20;;;;;;;1.90;1.80;;;24.00;51.60;;;;;;5128311;27;20531;-49
2022/06/22 13:32:04;;;;;;;1.50;1.40;;;24.10;51.60;;;;;;5097566;27;20550;-48
2022/06/22 13:34:49;;;;;;;2.50;1.90;;;24.10;51.70;;;;;;5105816;27;20680;-48
2022/06/22 13:37:43;;;;;;;3.10;2.00;;;24.10;51.40;;;;;;5051623;27;20677;-48
2022/06/22 13:40:30;;;;;;;1.80;1.70;;;24.10;51.50;;;;;;5086637;28;20577;-47
2022/06/22 13:43:31;;;;;;;1.70;1.60;;;24.10;51.60;;;;;;5052495;28;20596;-47
2022/06/22 13:46:27;;;;;;;1.60;1.50;;;24.10;51.40;;;;;;5079696;27;20652;-49
2022/06/22 13:49:12;;;;;;;2.03;1.60;;;24.10;51.20;;;;;;5073290;28;21034;-48
2022/06/22 13:52:14;;;;;;;1.50;1.40;;;24.10;51.50;;;;;;5085853;27;21023;-49
2022/06/22 13:55:31;;;;;;;5.03;2.50;;;24.10;51.20;;;;;;5129731;27;21124;-48
2022/06/22 13:58:18;;;;;;;2.30;2.10;;;24.20;47.70;;;;;;5068621;27;21125;-47
2022/06/22 14:01:02;;;;;;;3.50;2.15;;;24.30;47.50;;;;;;5149241;27;1226789;-48
2022/06/22 14:03:48;;;;;;;2.70;2.23;;;24.30;47.90;;;;;;5074791;27;20515;-51
2022/06/22 14:06:32;;;;;;;2.37;2.10;;;24.30;48.00;;;;;;5080669;27;20532;-48
2022/06/22 14:09:20;;;;;;;2.10;1.97;;;24.30;48.10;;;;;;5127919;27;21063;-48
2022/06/22 14:12:07;;;;;;;2.57;2.37;;;24.30;48.30;;;;;;5083474;27;20595;-48
2022/06/22 14:14:59;;;;;;;2.30;2.10;;;24.30;48.30;;;;;;5102689;27;20956;-49
2022/06/22 14:17:51;;;;;;;2.57;2.37;;;24.30;48.40;;;;;;5111391;27;20545;-48
2022/06/22 14:20:38;;;;;;;2.80;2.60;;;24.30;48.60;;;;;;5124663;27;20871;-48
2022/06/22 14:23:21;;;;;;;2.50;1.90;;;24.30;48.70;;;;;;5066619;27;20602;-49
2022/06/22 14:26:21;;;;;;;2.47;2.27;;;24.30;48.90;;;;;;5118735;27;20530;-48
2022/06/22 14:29:07;;;;;;;2.70;2.20;;;24.30;49.10;;;;;;5089304;28;20573;-48
2022/06/22 14:31:57;;;;;;;2.37;2.27;;;24.30;49.30;;;;;;5089408;27;20588;-46
2022/06/22 14:35:03;;;;;;;2.00;1.90;;;24.30;49.30;;;;;;5073382;27;20676;-48
2022/06/22 14:37:51;;;;;;;1.60;1.50;;;24.30;49.50;;;;;;5080142;27;20598;-48
2022/06/22 14:40:37;;;;;;;3.73;2.97;;;24.40;49.70;;;;;;5107938;27;20576;-49
2022/06/22 14:43:25;;;;;;;2.20;2.00;;;24.40;49.70;;;;;;5103943;27;20594;-46
2022/06/22 14:46:15;;;;;;;2.23;1.93;;;24.40;49.60;;;;;;5077995;27;20607;-47
2022/06/22 14:49:01;;;;;;;1.70;1.60;;;24.40;49.30;;;;;;5087048;27;20573;-48
2022/06/22 14:51:47;;;;;;;2.37;2.17;;;24.40;49.70;;;;;;5099630;27;20557;-47
2022/06/22 14:54:33;;;;;;;1.93;1.83;;;24.40;49.40;;;;;;5127573;27;20540;-48
2022/06/22 14:57:21;;;;;;;2.50;2.30;;;24.40;49.40;;;;;;5069709;28;20574;-48
2022/06/22 15:00:27;;;;;;;2.57;2.10;;;24.50;49.40;;;;;;5111865;27;20594;-48
2022/06/22 15:03:30;;;;;;;3.60;1.80;;;24.50;49.40;;;;;;5069885;27;20544;-48
2022/06/22 15:06:20;;;;;;;1.80;1.63;;;24.50;49.50;;;;;;5104839;27;20956;-46
2022/06/22 15:09:05;;;;;;;1.80;1.70;;;24.50;49.50;;;;;;5087518;28;21046;-49
2022/06/22 15:15:01;;;;;;;2.00;1.90;;;24.50;49.40;;;;;;5071190;27;20970;-49
2022/06/22 15:17:49;;;;;;;2.23;1.60;;;24.50;49.50;;;;;;5063920;27;20604;-47
2022/06/22 15:20:40;;;;;;;2.53;1.97;;;24.50;49.60;;;;;;5112879;27;21142;-47
2022/06/22 15:23:26;;;;;;;2.10;1.93;;;24.50;49.70;;;;;;5090793;27;21153;-48